sensor_id;sensor_type;location;lat;lon;timestamp;P1;durP1;ratioP1;P2;durP2;ratioP2
71162;SDS011;58858;50.948;6.566;2023-02-26T00:09:22;11.05;;;1.67;;
71162;SDS011;58858;50.948;6.566;2023-02-26T00:19:23;8.80;;;1.80;;
71162;SDS011;58858;50.948;6.566;2023-02-26T00:29:25;5.60;;;2.38;;
71162;SDS011;58858;50.948;6.566;2023-02-26T00:49:53;6.60;;;1.70;;
71162;SDS011;58858;50.948;6.566;2023-02-26T01:00:03;6.97;;;3.13;;
71162;SDS011;58858;50.948;6.566;2023-02-26T01:10:07;5.68;;;2.08;;
71162;SDS011;58858;50.948;6.566;2023-02-26T01:20:18;7.80;;;2.40;;
71162;SDS011;58858;50.948;6.566;2023-02-26T01:30:24;10.80;;;2.75;;
71162;SDS011;58858;50.948;6.566;2023-02-26T01:50:43;11.98;;;2.97;;
71162;SDS011;58858;50.948;6.566;2023-02-26T02:00:46;9.88;;;2.92;;
71162;SDS011;58858;50.948;6.566;2023-02-26T02:10:47;11.35;;;3.88;;
71162;SDS011;58858;50.948;6.566;2023-02-26T02:31:24;4.78;;;2.10;;
71162;SDS011;58858;50.948;6.566;2023-02-26T02:41:31;5.32;;;2.28;;
71162;SDS011;58858;50.948;6.566;2023-02-26T02:51:40;5.80;;;2.75;;
71162;SDS011;58858;50.948;6.566;2023-02-26T03:01:44;9.88;;;3.22;;
71162;SDS011;58858;50.948;6.566;2023-02-26T03:11:47;6.55;;;2.92;;
71162;SDS011;58858;50.948;6.566;2023-02-26T03:21:57;5.85;;;2.05;;
71162;SDS011;58858;50.948;6.566;2023-02-26T03:32:22;4.53;;;1.85;;
71162;SDS011;58858;50.948;6.566;2023-02-26T03:42:27;5.90;;;2.42;;
71162;SDS011;58858;50.948;6.566;2023-02-26T03:52:36;7.47;;;1.80;;
71162;SDS011;58858;50.948;6.566;2023-02-26T04:03:02;7.88;;;2.00;;
71162;SDS011;58858;50.948;6.566;2023-02-26T04:13:07;3.47;;;1.40;;
71162;SDS011;58858;50.948;6.566;2023-02-26T04:23:09;5.68;;;1.27;;
71162;SDS011;58858;50.948;6.566;2023-02-26T04:33:11;7.50;;;1.85;;
71162;SDS011;58858;50.948;6.566;2023-02-26T04:43:12;7.07;;;1.10;;
71162;SDS011;58858;50.948;6.566;2023-02-26T04:53:23;6.28;;;1.75;;
71162;SDS011;58858;50.948;6.566;2023-02-26T05:03:24;4.00;;;1.58;;
71162;SDS011;58858;50.948;6.566;2023-02-26T05:13:25;4.93;;;1.98;;
71162;SDS011;58858;50.948;6.566;2023-02-26T05:23:27;6.07;;;2.08;;
71162;SDS011;58858;50.948;6.566;2023-02-26T05:33:28;4.35;;;1.73;;
71162;SDS011;58858;50.948;6.566;2023-02-26T05:43:29;5.70;;;1.67;;
71162;SDS011;58858;50.948;6.566;2023-02-26T05:53:30;5.00;;;1.50;;
71162;SDS011;58858;50.948;6.566;2023-02-26T06:03:31;5.00;;;1.27;;
71162;SDS011;58858;50.948;6.566;2023-02-26T06:13:32;7.85;;;1.73;;
71162;SDS011;58858;50.948;6.566;2023-02-26T06:23:33;5.72;;;2.05;;
71162;SDS011;58858;50.948;6.566;2023-02-26T06:33:35;6.15;;;1.85;;
71162;SDS011;58858;50.948;6.566;2023-02-26T06:43:36;4.50;;;2.47;;
71162;SDS011;58858;50.948;6.566;2023-02-26T06:53:37;4.80;;;1.10;;
71162;SDS011;58858;50.948;6.566;2023-02-26T07:03:38;3.38;;;1.02;;
71162;SDS011;58858;50.948;6.566;2023-02-26T07:13:39;5.38;;;1.30;;
71162;SDS011;58858;50.948;6.566;2023-02-26T07:23:40;2.00;;;1.20;;
71162;SDS011;58858;50.948;6.566;2023-02-26T07:33:41;2.78;;;1.20;;
71162;SDS011;58858;50.948;6.566;2023-02-26T07:43:42;6.22;;;1.60;;
71162;SDS011;58858;50.948;6.566;2023-02-26T07:53:43;9.93;;;2.28;;
71162;SDS011;58858;50.948;6.566;2023-02-26T08:03:44;6.20;;;1.52;;
71162;SDS011;58858;50.948;6.566;2023-02-26T08:13:45;4.10;;;0.88;;
71162;SDS011;58858;50.948;6.566;2023-02-26T08:23:46;7.35;;;1.60;;
71162;SDS011;58858;50.948;6.566;2023-02-26T08:33:48;2.92;;;0.90;;
71162;SDS011;58858;50.948;6.566;2023-02-26T08:43:49;4.57;;;1.25;;
71162;SDS011;58858;50.948;6.566;2023-02-26T08:53:51;5.03;;;1.88;;
71162;SDS011;58858;50.948;6.566;2023-02-26T09:03:54;1.40;;;0.98;;
71162;SDS011;58858;50.948;6.566;2023-02-26T09:13:56;5.25;;;1.10;;
71162;SDS011;58858;50.948;6.566;2023-02-26T09:23:58;7.00;;;1.83;;
71162;SDS011;58858;50.948;6.566;2023-02-26T09:33:59;7.93;;;2.45;;
71162;SDS011;58858;50.948;6.566;2023-02-26T09:44:20;2.67;;;1.40;;
71162;SDS011;58858;50.948;6.566;2023-02-26T09:54:29;4.88;;;1.38;;
71162;SDS011;58858;50.948;6.566;2023-02-26T10:15:09;2.65;;;0.85;;
71162;SDS011;58858;50.948;6.566;2023-02-26T10:25:20;6.13;;;1.52;;
71162;SDS011;58858;50.948;6.566;2023-02-26T10:35:22;5.38;;;1.00;;
71162;SDS011;58858;50.948;6.566;2023-02-26T10:55:59;4.55;;;0.95;;
71162;SDS011;58858;50.948;6.566;2023-02-26T11:06:04;5.25;;;1.35;;
71162;SDS011;58858;50.948;6.566;2023-02-26T11:16:12;4.57;;;1.10;;
71162;SDS011;58858;50.948;6.566;2023-02-26T11:26:16;3.20;;;0.65;;
71162;SDS011;58858;50.948;6.566;2023-02-26T11:36:18;2.35;;;0.85;;
71162;SDS011;58858;50.948;6.566;2023-02-26T11:46:23;4.38;;;0.90;;
71162;SDS011;58858;50.948;6.566;2023-02-26T11:56:33;1.55;;;1.05;;
71162;SDS011;58858;50.948;6.566;2023-02-26T12:06:38;1.08;;;0.60;;
71162;SDS011;58858;50.948;6.566;2023-02-26T12:16:50;1.05;;;0.60;;
71162;SDS011;58858;50.948;6.566;2023-02-26T12:27:53;2.25;;;0.85;;
71162;SDS011;58858;50.948;6.566;2023-02-26T12:48:42;1.65;;;0.52;;
71162;SDS011;58858;50.948;6.566;2023-02-26T13:09:37;1.90;;;0.65;;
71162;SDS011;58858;50.948;6.566;2023-02-26T13:19:55;1.60;;;0.93;;
71162;SDS011;58858;50.948;6.566;2023-02-26T13:50:27;2.42;;;0.65;;
71162;SDS011;58858;50.948;6.566;2023-02-26T14:00:40;11.55;;;1.45;;
71162;SDS011;58858;50.948;6.566;2023-02-26T14:10:55;1.27;;;0.40;;
71162;SDS011;58858;50.948;6.566;2023-02-26T14:31:53;1.73;;;0.60;;
71162;SDS011;58858;50.948;6.566;2023-02-26T14:42:09;0.40;;;0.40;;
71162;SDS011;58858;50.948;6.566;2023-02-26T15:23:14;5.65;;;0.77;;
71162;SDS011;58858;50.948;6.566;2023-02-26T15:33:27;1.58;;;0.63;;
71162;SDS011;58858;50.948;6.566;2023-02-26T15:43:29;2.92;;;0.73;;
71162;SDS011;58858;50.948;6.566;2023-02-26T15:53:31;1.17;;;0.45;;
71162;SDS011;58858;50.948;6.566;2023-02-26T16:03:35;0.53;;;0.33;;
71162;SDS011;58858;50.948;6.566;2023-02-26T16:13:38;1.90;;;0.75;;
71162;SDS011;58858;50.948;6.566;2023-02-26T16:23:44;1.58;;;0.63;;
71162;SDS011;58858;50.948;6.566;2023-02-26T16:34:19;1.50;;;0.60;;
71162;SDS011;58858;50.948;6.566;2023-02-26T16:54:35;4.07;;;0.68;;
71162;SDS011;58858;50.948;6.566;2023-02-26T17:04:40;2.35;;;0.70;;
71162;SDS011;58858;50.948;6.566;2023-02-26T17:14:45;2.63;;;0.90;;
71162;SDS011;58858;50.948;6.566;2023-02-26T17:24:48;2.35;;;0.70;;
71162;SDS011;58858;50.948;6.566;2023-02-26T17:34:50;5.03;;;0.95;;
71162;SDS011;58858;50.948;6.566;2023-02-26T17:44:54;3.88;;;0.98;;
71162;SDS011;58858;50.948;6.566;2023-02-26T17:54:56;11.27;;;1.73;;
71162;SDS011;58858;50.948;6.566;2023-02-26T18:04:57;3.47;;;1.25;;
71162;SDS011;58858;50.948;6.566;2023-02-26T18:14:58;3.05;;;1.60;;
71162;SDS011;58858;50.948;6.566;2023-02-26T18:24:59;2.40;;;1.00;;
71162;SDS011;58858;50.948;6.566;2023-02-26T18:35:01;1.30;;;0.90;;
71162;SDS011;58858;50.948;6.566;2023-02-26T18:45:02;2.42;;;1.10;;
71162;SDS011;58858;50.948;6.566;2023-02-26T18:55:03;4.57;;;1.58;;
71162;SDS011;58858;50.948;6.566;2023-02-26T19:05:06;5.57;;;1.95;;
71162;SDS011;58858;50.948;6.566;2023-02-26T19:15:08;4.80;;;1.92;;
71162;SDS011;58858;50.948;6.566;2023-02-26T19:25:12;6.53;;;2.03;;
71162;SDS011;58858;50.948;6.566;2023-02-26T19:35:13;4.93;;;2.08;;
71162;SDS011;58858;50.948;6.566;2023-02-26T19:45:15;3.97;;;1.88;;
71162;SDS011;58858;50.948;6.566;2023-02-26T19:55:16;3.05;;;1.60;;
71162;SDS011;58858;50.948;6.566;2023-02-26T20:05:17;5.03;;;2.20;;
71162;SDS011;58858;50.948;6.566;2023-02-26T20:15:19;4.72;;;2.10;;
71162;SDS011;58858;50.948;6.566;2023-02-26T20:25:20;4.38;;;2.00;;
71162;SDS011;58858;50.948;6.566;2023-02-26T20:35:21;3.72;;;2.28;;
71162;SDS011;58858;50.948;6.566;2023-02-26T20:45:25;6.25;;;2.30;;
71162;SDS011;58858;50.948;6.566;2023-02-26T20:55:26;1.52;;;1.17;;
71162;SDS011;58858;50.948;6.566;2023-02-26T21:05:27;5.45;;;1.52;;
71162;SDS011;58858;50.948;6.566;2023-02-26T21:15:28;7.93;;;1.73;;
71162;SDS011;58858;50.948;6.566;2023-02-26T21:25:29;2.42;;;1.27;;
71162;SDS011;58858;50.948;6.566;2023-02-26T21:35:31;7.47;;;2.78;;
71162;SDS011;58858;50.948;6.566;2023-02-26T21:45:32;3.70;;;1.58;;
71162;SDS011;58858;50.948;6.566;2023-02-26T21:55:35;3.03;;;1.70;;
71162;SDS011;58858;50.948;6.566;2023-02-26T22:05:36;3.58;;;1.63;;
71162;SDS011;58858;50.948;6.566;2023-02-26T22:15:37;2.50;;;1.92;;
71162;SDS011;58858;50.948;6.566;2023-02-26T22:25:39;7.15;;;2.25;;
71162;SDS011;58858;50.948;6.566;2023-02-26T22:35:40;3.83;;;1.60;;
71162;SDS011;58858;50.948;6.566;2023-02-26T22:45:41;4.78;;;1.77;;
71162;SDS011;58858;50.948;6.566;2023-02-26T22:55:43;4.28;;;1.90;;
71162;SDS011;58858;50.948;6.566;2023-02-26T23:05:44;3.95;;;2.05;;
71162;SDS011;58858;50.948;6.566;2023-02-26T23:15:45;2.88;;;1.67;;
71162;SDS011;58858;50.948;6.566;2023-02-26T23:25:49;1.88;;;1.58;;
71162;SDS011;58858;50.948;6.566;2023-02-26T23:35:50;3.58;;;2.33;;
71162;SDS011;58858;50.948;6.566;2023-02-26T23:45:51;4.20;;;2.15;;
71162;SDS011;58858;50.948;6.566;2023-02-26T23:55:55;4.20;;;2.05;;
